createdAt,value
2022-08-05T00:00:55.654Z,58.27
2022-08-05T00:03:29.176Z,58.23
2022-08-05T00:06:04.698Z,57.84
2022-08-05T00:08:47.458Z,58.89
2022-08-05T00:11:20.622Z,58.31
2022-08-05T00:13:55.661Z,58.78
2022-08-05T00:16:35.953Z,58.72
2022-08-05T00:19:07.828Z,59.13
2022-08-05T00:21:35.662Z,59.39
2022-08-05T00:24:10.177Z,59.28
2022-08-05T00:26:38.917Z,59.05
2022-08-05T00:29:14.409Z,59.62
2022-08-05T00:32:10.216Z,59.26
2022-08-05T00:34:56.409Z,59.45
2022-08-05T00:37:17.399Z,59.79
2022-08-05T00:39:57.973Z,59.53
2022-08-05T00:42:31.758Z,59.85
2022-08-05T00:45:00.006Z,59.39
2022-08-05T00:47:27.810Z,59.40
2022-08-05T00:50:15.368Z,59.92
2022-08-05T00:52:45.476Z,59.62
2022-08-05T00:55:15.048Z,60.10
2022-08-05T00:57:57.879Z,59.82
2022-08-05T01:00:26.660Z,59.85
2022-08-05T01:02:55.319Z,59.64
2022-08-05T01:05:23.609Z,60.03
2022-08-05T01:08:42.276Z,59.75
2022-08-05T01:10:40.569Z,60.30
2022-08-05T01:13:22.443Z,59.88
2022-08-05T01:15:55.287Z,60.16
2022-08-05T01:18:27.472Z,60.23
2022-08-05T01:20:55.197Z,60.38
2022-08-05T01:23:24.732Z,59.90
2022-08-05T01:26:02.597Z,60.61
2022-08-05T01:28:30.335Z,60.32
2022-08-05T01:30:58.056Z,60.43
2022-08-05T01:33:26.218Z,60.16
2022-08-05T01:35:54.028Z,60.86
2022-08-05T01:38:29.033Z,60.79
2022-08-05T01:40:57.441Z,60.58
2022-08-05T01:43:25.173Z,60.59
2022-08-05T01:45:56.514Z,60.42
2022-08-05T01:48:25.208Z,60.29
2022-08-05T01:50:52.928Z,60.31
2022-08-05T01:53:55.139Z,60.29
2022-08-05T01:56:09.354Z,60.70
2022-08-05T01:58:40.673Z,60.18
2022-08-05T02:01:12.479Z,60.70
2022-08-05T02:03:40.314Z,60.70
2022-08-05T02:06:33.576Z,60.88
2022-08-05T02:08:58.907Z,60.64
2022-08-05T02:11:33.810Z,60.54
2022-08-05T02:14:01.808Z,61.01
2022-08-05T02:16:29.474Z,60.90
2022-08-05T02:18:57.656Z,60.97
2022-08-05T02:21:25.384Z,60.63
2022-08-05T02:23:53.280Z,61.01
2022-08-05T02:26:20.979Z,60.56
2022-08-05T02:28:49.897Z,60.67
2022-08-05T02:31:21.237Z,60.63
2022-08-05T02:33:49.480Z,60.56
2022-08-05T02:36:27.517Z,60.35
2022-08-05T02:38:55.983Z,60.72
2022-08-05T02:41:29.010Z,60.48
2022-08-05T02:44:06.943Z,59.97
2022-08-05T02:46:44.045Z,60.48
2022-08-05T02:49:26.520Z,60.14
2022-08-05T02:52:03.620Z,60.72
2022-08-05T02:54:36.414Z,60.45
2022-08-05T02:57:10.159Z,60.21
2022-08-05T02:59:54.231Z,60.78
2022-08-05T03:02:21.950Z,60.18
2022-08-05T03:04:53.355Z,60.37
2022-08-05T03:07:40.677Z,60.45
2022-08-05T03:10:08.706Z,60.37
2022-08-05T03:12:36.838Z,60.35
2022-08-05T03:15:04.529Z,60.16
2022-08-05T03:17:34.630Z,60.89
2022-08-05T03:20:10.095Z,60.90
2022-08-05T03:22:38.096Z,60.71
2022-08-05T03:25:33.533Z,60.89
2022-08-05T03:28:00.609Z,61.36
2022-08-05T03:30:28.710Z,61.40
2022-08-05T03:33:02.484Z,61.60
2022-08-05T03:35:33.837Z,61.38
2022-08-05T03:38:01.757Z,61.98
2022-08-05T03:40:31.928Z,62.24
2022-08-05T03:43:01.478Z,62.93
2022-08-05T03:45:58.170Z,63.19
2022-08-05T03:48:26.979Z,63.44
2022-08-05T03:50:59.152Z,63.70
2022-08-05T03:55:53.544Z,63.49
2022-08-05T03:56:35.187Z,63.68
2022-08-05T03:59:03.594Z,64.10
2022-08-05T04:01:33.535Z,64.26
2022-08-05T04:04:09.072Z,63.98
2022-08-05T04:06:38.104Z,64.46
2022-08-05T04:09:07.198Z,64.43
2022-08-05T04:11:47.304Z,64.66
2022-08-05T04:14:18.304Z,65.11
2022-08-05T04:16:45.939Z,64.69
2022-08-05T04:19:14.108Z,65.12
2022-08-05T04:22:09.848Z,65.24
2022-08-05T04:24:29.434Z,65.68
2022-08-05T04:26:58.121Z,65.32
2022-08-05T04:29:27.282Z,66.65
2022-08-05T04:31:56.760Z,66.33
2022-08-05T04:34:33.836Z,66.66
2022-08-05T04:37:03.175Z,66.86
2022-08-05T04:39:31.314Z,67.05
2022-08-05T04:41:59.871Z,66.88
2022-08-05T04:44:29.598Z,66.62
2022-08-05T04:46:58.442Z,66.60
2022-08-05T04:49:38.465Z,66.72
2022-08-05T04:52:16.489Z,66.61
2022-08-05T04:54:44.143Z,66.09
2022-08-05T04:57:12.253Z,66.69
2022-08-05T04:59:40.814Z,66.03
2022-08-05T05:02:41.270Z,66.10
2022-08-05T05:05:02.706Z,66.03
2022-08-05T05:07:32.787Z,65.83
2022-08-05T05:10:06.612Z,65.94
2022-08-05T05:12:34.369Z,65.57
2022-08-05T05:15:04.599Z,65.94
2022-08-05T05:17:56.334Z,65.37
2022-08-05T05:20:20.357Z,65.16
2022-08-05T05:22:48.205Z,65.76
2022-08-05T05:25:17.344Z,65.04
2022-08-05T05:27:53.526Z,65.48
2022-08-05T05:30:29.702Z,65.63
2022-08-05T05:33:00.172Z,65.57
2022-08-05T05:35:29.121Z,65.46
2022-08-05T05:38:03.441Z,65.51
2022-08-05T05:40:33.386Z,66.08
2022-08-05T05:43:02.332Z,65.59
2022-08-05T05:45:29.936Z,66.43
2022-08-05T05:48:06.677Z,65.99
2022-08-05T05:50:44.256Z,66.40
2022-08-05T05:53:22.007Z,66.52
2022-08-05T05:55:52.077Z,66.49
2022-08-05T05:58:31.893Z,66.49
2022-08-05T06:01:12.397Z,66.33
2022-08-05T06:04:00.352Z,66.34
2022-08-05T06:06:31.386Z,66.13
2022-08-05T06:09:03.926Z,66.32
2022-08-05T06:11:31.731Z,66.34
2022-08-05T06:14:00.315Z,65.86
2022-08-05T06:16:32.711Z,65.74
2022-08-05T06:19:05.830Z,65.78
2022-08-05T06:21:37.237Z,65.83
2022-08-05T06:24:06.010Z,65.43
2022-08-05T06:26:36.047Z,65.54
2022-08-05T06:29:23.622Z,65.38
2022-08-05T06:31:51.464Z,65.77
2022-08-05T06:34:19.964Z,65.54
2022-08-05T06:36:57.967Z,65.60
2022-08-05T06:39:26.824Z,65.75
2022-08-05T06:41:56.542Z,65.92
2022-08-05T06:44:26.450Z,66.11
2022-08-05T06:46:54.363Z,65.28
2022-08-05T06:50:01.336Z,65.78
2022-08-05T06:52:37.780Z,65.32
2022-08-05T06:54:58.476Z,65.41
2022-08-05T06:58:03.916Z,65.52
2022-08-05T07:00:14.183Z,65.44
2022-08-05T07:02:53.983Z,65.76
2022-08-05T07:05:31.885Z,65.92
2022-08-05T07:08:05.234Z,66.32
2022-08-05T07:10:32.985Z,66.24
2022-08-05T07:13:52.462Z,66.38
2022-08-05T07:17:59.948Z,66.22
2022-08-05T07:19:11.221Z,66.50
2022-08-05T07:22:00.547Z,66.75
2022-08-05T07:24:29.998Z,66.61
2022-08-05T07:26:58.080Z,66.77
2022-08-05T07:30:27.725Z,67.30
2022-08-05T07:32:14.663Z,67.08
2022-08-05T07:34:42.609Z,66.86
2022-08-05T07:37:11.690Z,67.29
2022-08-05T07:40:04.556Z,67.74
2022-08-05T07:42:31.857Z,67.66
2022-08-05T07:45:01.902Z,68.43
2022-08-05T07:47:31.156Z,67.91
2022-08-05T07:50:09.835Z,68.52
2022-08-05T07:52:37.588Z,68.71
2022-08-05T07:55:15.842Z,68.38
2022-08-05T07:58:02.166Z,68.50
2022-08-05T08:00:30.931Z,69.35
2022-08-05T08:03:13.600Z,69.26
2022-08-05T08:05:49.279Z,69.69
2022-08-05T08:08:20.006Z,69.41
2022-08-05T08:10:48.724Z,69.53
2022-08-05T08:13:22.100Z,70.03
2022-08-05T08:16:35.878Z,69.70
2022-08-05T08:18:50.228Z,70.05
2022-08-05T08:21:18.438Z,70.17
2022-08-05T08:24:03.164Z,70.37
2022-08-05T08:26:32.795Z,70.44
2022-08-05T08:29:02.285Z,70.29
2022-08-05T08:31:48.318Z,70.55
2022-08-05T08:34:16.212Z,70.86
2022-08-05T08:36:52.510Z,70.80
2022-08-05T08:39:23.665Z,71.37
2022-08-05T08:42:00.093Z,71.07
2022-08-05T08:45:19.918Z,70.68
2022-08-05T08:47:21.975Z,71.13
2022-08-05T08:50:30.348Z,71.14
2022-08-05T08:52:53.756Z,71.41
2022-08-05T08:56:01.952Z,71.73
2022-08-05T08:58:09.922Z,71.17
2022-08-05T09:00:41.198Z,71.46
2022-08-05T09:03:09.428Z,71.84
2022-08-05T09:05:38.282Z,72.43
2022-08-05T09:08:27.386Z,72.05
2022-08-05T09:10:57.839Z,71.96
2022-08-05T09:13:25.559Z,71.96
2022-08-05T09:15:59.944Z,72.57
2022-08-05T09:18:27.915Z,72.84
2022-08-05T09:20:57.559Z,72.26
2022-08-05T09:23:27.185Z,72.68
2022-08-05T09:26:02.418Z,72.28
2022-08-05T09:28:33.634Z,72.98
2022-08-05T09:31:22.408Z,72.67
2022-08-05T09:33:52.464Z,72.97
2022-08-05T09:36:21.405Z,72.28
2022-08-05T09:38:56.022Z,72.81
2022-08-05T09:41:24.848Z,72.49
2022-08-05T09:43:53.563Z,72.16
2022-08-05T09:46:22.795Z,71.98
2022-08-05T09:49:07.990Z,71.83
2022-08-05T09:51:44.040Z,72.09
2022-08-05T09:54:16.771Z,72.26
2022-08-05T09:56:57.529Z,71.85
2022-08-05T09:59:27.619Z,71.81
2022-08-05T10:01:58.172Z,71.68
2022-08-05T10:04:29.341Z,71.70
2022-08-05T10:06:59.590Z,71.17
2022-08-05T10:09:30.148Z,71.41
2022-08-05T10:12:30.352Z,71.28
2022-08-05T10:15:01.435Z,70.86
2022-08-05T10:17:37.680Z,70.77
2022-08-05T10:20:09.963Z,70.43
2022-08-05T10:22:42.795Z,70.21
2022-08-05T10:25:16.435Z,70.56
2022-08-05T10:28:16.819Z,70.46
2022-08-05T10:31:20.122Z,70.34
2022-08-05T10:33:20.024Z,70.63
2022-08-05T10:35:59.264Z,70.85
2022-08-05T10:38:27.920Z,70.40
2022-08-05T10:40:58.197Z,70.49
2022-08-05T10:43:31.058Z,70.70
2022-08-05T10:46:06.726Z,71.20
2022-08-05T10:48:40.663Z,70.79
2022-08-05T10:51:23.170Z,70.83
2022-08-05T10:53:58.586Z,70.45
2022-08-05T10:56:29.291Z,70.10
2022-08-05T10:58:58.052Z,70.08
2022-08-05T11:02:02.848Z,70.48
2022-08-05T11:04:22.724Z,69.87
2022-08-05T11:06:54.047Z,69.79
2022-08-05T11:09:31.950Z,69.88
2022-08-05T11:12:06.866Z,70.22
2022-08-05T11:15:01.569Z,69.65
2022-08-05T11:17:59.992Z,69.89
2022-08-05T11:20:17.295Z,70.10
2022-08-05T11:22:49.878Z,69.94
2022-08-05T11:26:05.098Z,69.67
2022-08-05T11:28:09.274Z,69.70
2022-08-05T11:30:44.853Z,69.84
2022-08-05T11:33:21.462Z,69.33
2022-08-05T11:36:07.433Z,69.98
2022-08-05T11:38:45.218Z,69.57
2022-08-05T11:41:54.811Z,69.83
2022-08-05T11:44:07.109Z,69.73
2022-08-05T11:46:35.912Z,69.49
2022-08-05T11:49:03.981Z,69.39
2022-08-05T11:51:44.725Z,68.70
2022-08-05T11:54:18.084Z,68.21
2022-08-05T11:56:50.045Z,68.53
2022-08-05T11:59:21.305Z,68.30
2022-08-05T12:01:49.205Z,67.61
2022-08-05T12:04:20.148Z,67.59
2022-08-05T12:06:50.056Z,66.83
2022-08-05T12:09:20.241Z,66.18
2022-08-05T12:11:47.990Z,64.94
2022-08-05T12:14:18.461Z,63.91
2022-08-05T12:16:47.462Z,62.07
2022-08-05T12:20:16.861Z,59.37
2022-08-05T12:22:03.169Z,57.98
2022-08-05T12:24:30.887Z,57.56
2022-08-05T12:26:59.091Z,57.94
2022-08-05T12:29:38.052Z,57.57
2022-08-05T12:32:07.526Z,57.20
2022-08-05T12:34:37.304Z,56.03
2022-08-05T12:37:17.222Z,53.34
2022-08-05T12:39:51.178Z,51.01
2022-08-05T12:42:19.370Z,49.99
2022-08-05T12:44:47.814Z,48.76
2022-08-05T12:47:17.172Z,48.93
2022-08-05T12:50:04.463Z,48.55
2022-08-05T12:52:39.702Z,49.26
2022-08-05T12:55:10.477Z,48.91
2022-08-05T12:58:49.098Z,48.32
2022-08-05T13:02:03.019Z,50.06
2022-08-05T13:03:14.830Z,52.11
2022-08-05T13:05:42.992Z,53.71
2022-08-05T13:08:10.731Z,53.47
2022-08-05T13:10:50.229Z,53.17
2022-08-05T13:14:07.347Z,53.79
2022-08-05T13:16:06.167Z,53.61
2022-08-05T13:18:38.660Z,52.82
2022-08-05T13:21:06.346Z,52.37
2022-08-05T13:23:34.029Z,52.63
2022-08-05T13:26:03.693Z,54.53
2022-08-05T13:28:32.341Z,54.31
2022-08-05T13:31:10.922Z,53.55
2022-08-05T13:34:20.233Z,52.89
2022-08-05T13:36:31.790Z,52.72
2022-08-05T13:38:59.484Z,52.94
2022-08-05T13:41:35.943Z,53.65
2022-08-05T13:44:05.359Z,54.49
2022-08-05T13:46:50.641Z,56.13
2022-08-05T13:49:21.544Z,57.40
2022-08-05T13:51:49.274Z,58.82
2022-08-05T13:54:21.233Z,59.36
2022-08-05T13:56:53.176Z,60.06
2022-08-05T13:59:23.990Z,60.15
2022-08-05T14:01:57.892Z,59.99
2022-08-05T14:04:49.935Z,60.08
2022-08-05T14:07:55.363Z,57.77
2022-08-05T14:10:08.384Z,54.86
2022-08-05T14:12:36.377Z,54.69
2022-08-05T14:16:05.474Z,53.77
2022-08-05T14:17:54.967Z,53.01
2022-08-05T14:20:27.215Z,52.14
2022-08-05T14:22:55.252Z,51.55
2022-08-05T14:25:28.132Z,51.08
2022-08-05T14:27:56.253Z,51.83
2022-08-05T14:30:28.087Z,53.04
2022-08-05T14:32:56.931Z,53.56
2022-08-05T14:35:36.151Z,54.13
2022-08-05T14:38:33.333Z,54.41
2022-08-05T14:41:00.562Z,54.95
2022-08-05T14:43:59.451Z,56.12
2022-08-05T14:46:16.016Z,57.21
2022-08-05T14:48:43.958Z,57.71
2022-08-05T14:51:17.689Z,58.80
2022-08-05T14:53:45.554Z,58.83
2022-08-05T14:56:34.084Z,59.57
2022-08-05T14:59:05.732Z,59.82
2022-08-05T15:01:48.486Z,60.51
2022-08-05T15:04:17.264Z,61.06
2022-08-05T15:06:48.983Z,61.33
2022-08-05T15:09:51.054Z,60.68
2022-08-05T15:12:05.021Z,60.99
2022-08-05T15:14:36.896Z,61.08
2022-08-05T15:17:47.674Z,61.06
2022-08-05T15:20:04.477Z,60.27
2022-08-05T15:22:32.141Z,60.66
2022-08-05T15:25:00.425Z,59.79
2022-08-05T15:27:39.802Z,59.81
2022-08-05T15:30:10.989Z,59.79
2022-08-05T15:32:42.428Z,59.11
2022-08-05T15:35:12.619Z,59.04
2022-08-05T15:38:32.797Z,59.07
2022-08-05T15:41:00.573Z,59.04
2022-08-05T15:43:20.066Z,58.75
2022-08-05T15:46:00.718Z,58.58
2022-08-05T15:48:29.140Z,58.56
2022-08-05T15:50:56.876Z,58.71
2022-08-05T15:53:26.390Z,58.12
2022-08-05T15:56:01.380Z,57.71
2022-08-05T15:58:36.880Z,57.35
2022-08-05T16:01:17.111Z,56.36
2022-08-05T16:03:48.548Z,56.24
2022-08-05T16:06:20.238Z,55.94
2022-08-05T16:08:50.317Z,56.15
2022-08-05T16:11:39.988Z,55.70
2022-08-05T16:14:09.292Z,55.49
2022-08-05T16:16:37.303Z,54.49
2022-08-05T16:19:04.949Z,52.85
2022-08-05T16:22:00.834Z,52.49
2022-08-05T16:24:39.536Z,51.91
2022-08-05T16:27:07.985Z,52.05
2022-08-05T16:29:37.312Z,52.94
2022-08-05T16:32:05.557Z,53.88
2022-08-05T16:34:33.310Z,54.64
2022-08-05T16:37:01.070Z,54.49
2022-08-05T16:40:05.014Z,52.49
2022-08-05T16:42:27.701Z,51.62
2022-08-05T16:44:57.087Z,52.50
2022-08-05T16:47:35.866Z,52.78
2022-08-05T16:50:04.486Z,53.03
2022-08-05T16:52:33.341Z,53.03
2022-08-05T16:55:01.434Z,53.65
2022-08-05T16:57:48.609Z,53.23
2022-08-05T17:00:33.984Z,53.22
2022-08-05T17:03:02.815Z,54.03
2022-08-05T17:05:31.576Z,53.87
2022-08-05T17:07:59.730Z,54.08
2022-08-05T17:10:30.513Z,54.40
2022-08-05T17:12:58.490Z,54.00
2022-08-05T17:15:29.505Z,54.25
2022-08-05T17:18:14.073Z,53.92
2022-08-05T17:20:42.529Z,53.64
2022-08-05T17:24:03.122Z,53.62
2022-08-05T17:25:59.661Z,53.85
2022-08-05T17:28:29.943Z,53.04
2022-08-05T17:30:57.597Z,53.38
2022-08-05T17:33:26.215Z,53.43
2022-08-05T17:36:07.275Z,52.61
2022-08-05T17:38:39.923Z,53.10
2022-08-05T17:41:22.738Z,52.92
2022-08-05T17:43:55.455Z,52.81
2022-08-05T17:46:23.869Z,53.05
2022-08-05T17:48:52.524Z,53.27
2022-08-05T17:51:21.587Z,53.41
2022-08-05T17:53:50.769Z,53.63
2022-08-05T17:56:22.797Z,53.29
2022-08-05T17:58:51.234Z,53.56
2022-08-05T18:01:20.014Z,53.25
2022-08-05T18:03:59.683Z,53.36
2022-08-05T18:06:32.494Z,54.03
2022-08-05T18:09:03.636Z,53.63
2022-08-05T18:11:33.371Z,53.66
2022-08-05T18:14:03.422Z,53.89
2022-08-05T18:16:31.715Z,53.87
2022-08-05T18:18:59.761Z,53.93
2022-08-05T18:21:28.227Z,53.82
2022-08-05T18:24:15.231Z,53.95
2022-08-05T18:26:43.778Z,53.63
2022-08-05T18:29:11.756Z,53.62
2022-08-05T18:31:43.165Z,53.53
2022-08-05T18:34:12.227Z,53.67
2022-08-05T18:36:41.245Z,53.44
2022-08-05T18:39:42.010Z,53.62
2022-08-05T18:42:05.053Z,54.17
2022-08-05T18:44:49.153Z,54.13
2022-08-05T18:47:26.843Z,54.06
2022-08-05T18:50:12.394Z,54.31
2022-08-05T18:52:51.348Z,54.30
2022-08-05T18:55:19.519Z,54.76
2022-08-05T18:57:53.388Z,54.33
2022-08-05T19:00:29.235Z,54.75
2022-08-05T19:03:04.041Z,54.69
2022-08-05T19:06:13.455Z,54.74
2022-08-05T19:08:19.961Z,54.56
2022-08-05T19:10:49.521Z,55.11
2022-08-05T19:13:17.142Z,54.83
2022-08-05T19:15:59.270Z,54.99
2022-08-05T19:18:28.848Z,55.38
2022-08-05T19:20:56.858Z,55.23
2022-08-05T19:24:08.058Z,55.59
2022-08-05T19:26:12.788Z,55.51
2022-08-05T19:28:42.297Z,55.76
2022-08-05T19:31:13.196Z,55.85
2022-08-05T19:33:48.676Z,56.04
2022-08-05T19:36:23.880Z,56.36
2022-08-05T19:38:52.369Z,56.22
2022-08-05T19:41:22.084Z,56.54
2022-08-05T19:44:13.010Z,56.18
2022-08-05T19:46:43.646Z,56.01
2022-08-05T19:49:12.440Z,56.83
2022-08-05T19:52:05.760Z,56.82
2022-08-05T19:54:34.150Z,56.60
2022-08-05T19:57:07.638Z,56.70
2022-08-05T19:59:55.578Z,57.03
2022-08-05T20:02:26.125Z,56.96
2022-08-05T20:04:55.557Z,57.38
2022-08-05T20:07:39.004Z,57.55
2022-08-05T20:10:14.746Z,57.89
2022-08-05T20:12:47.728Z,57.15
2022-08-05T20:15:47.761Z,57.40
2022-08-05T20:18:10.320Z,57.90
2022-08-05T20:20:55.201Z,57.93
2022-08-05T20:23:23.862Z,57.81
2022-08-05T20:26:08.484Z,58.24
2022-08-05T20:28:44.314Z,58.65
2022-08-05T20:31:12.758Z,58.21
2022-08-05T20:33:42.504Z,58.50
2022-08-05T20:36:11.264Z,57.93
2022-08-05T20:38:40.878Z,58.18
2022-08-05T20:41:27.201Z,58.28
2022-08-05T20:44:18.397Z,58.56
2022-08-05T20:46:47.590Z,58.35
2022-08-05T20:49:24.062Z,58.98
2022-08-05T20:51:53.807Z,58.90
2022-08-05T20:54:21.827Z,59.20
2022-08-05T20:56:49.789Z,58.99
2022-08-05T20:59:26.195Z,59.10
2022-08-05T21:01:57.133Z,59.85
2022-08-05T21:04:27.097Z,59.31
2022-08-05T21:06:54.968Z,59.90
2022-08-05T21:09:23.475Z,60.30
2022-08-05T21:12:09.615Z,59.54
2022-08-05T21:14:38.993Z,60.32
2022-08-05T21:17:06.780Z,59.99
2022-08-05T21:19:47.554Z,59.94
2022-08-05T21:22:17.624Z,60.29
2022-08-05T21:24:49.043Z,60.37
2022-08-05T21:27:20.686Z,60.16
2022-08-05T21:29:55.369Z,60.47
2022-08-05T21:32:23.393Z,60.19
2022-08-05T21:34:56.016Z,60.91
2022-08-05T21:37:41.443Z,60.66
2022-08-05T21:40:13.701Z,60.29
2022-08-05T21:42:45.086Z,60.49
2022-08-05T21:45:24.831Z,60.17
2022-08-05T21:47:56.288Z,60.48
2022-08-05T21:50:25.505Z,60.13
2022-08-05T21:52:53.522Z,60.30
2022-08-05T21:55:42.849Z,60.20
2022-08-05T21:58:10.422Z,60.60
2022-08-05T22:00:40.152Z,60.63
2022-08-05T22:03:09.756Z,60.79
2022-08-05T22:05:48.114Z,60.33
2022-08-05T22:08:22.559Z,60.78
2022-08-05T22:10:53.226Z,60.76
2022-08-05T22:14:34.612Z,60.57
2022-08-05T22:16:39.123Z,60.97
2022-08-05T22:18:58.527Z,61.11
2022-08-05T22:21:26.632Z,60.88
2022-08-05T22:24:13.445Z,61.12
2022-08-05T22:27:17.382Z,60.80
2022-08-05T22:29:45.949Z,61.21
2022-08-05T22:32:17.495Z,61.40
2022-08-05T22:34:45.847Z,60.76
2022-08-05T22:37:13.638Z,60.90
2022-08-05T22:39:41.403Z,60.63
2022-08-05T22:42:12.695Z,60.88
2022-08-05T22:44:48.466Z,60.84
2022-08-05T22:47:29.385Z,61.38
2022-08-05T22:50:17.893Z,60.48
2022-08-05T22:52:46.298Z,60.89
2022-08-05T22:55:19.346Z,60.54
2022-08-05T22:57:49.081Z,61.13
2022-08-05T23:00:17.965Z,61.33
2022-08-05T23:02:48.908Z,60.57
2022-08-05T23:05:17.101Z,60.73
2022-08-05T23:07:48.849Z,60.47
2022-08-05T23:10:19.566Z,60.99
2022-08-05T23:12:48.146Z,60.16
2022-08-05T23:15:19.392Z,61.13
2022-08-05T23:18:01.726Z,60.50
2022-08-05T23:20:30.229Z,61.16
2022-08-05T23:22:58.764Z,60.78
2022-08-05T23:25:51.689Z,61.40
2022-08-05T23:28:15.999Z,61.44
2022-08-05T23:30:53.798Z,61.99
2022-08-05T23:33:26.203Z,61.46
2022-08-05T23:36:10.446Z,61.95
2022-08-05T23:38:38.863Z,61.66
2022-08-05T23:41:06.477Z,62.09
2022-08-05T23:44:05.474Z,62.36
2022-08-05T23:46:22.615Z,61.83
2022-08-05T23:48:59.795Z,62.20
2022-08-05T23:51:52.461Z,62.44
2022-08-05T23:54:25.716Z,62.20
2022-08-05T23:56:54.456Z,62.42
2022-08-05T23:59:22.701Z,62.38
